createdAt,value
2023-04-18T00:03:55.336Z,10.71
2023-04-18T00:08:52.776Z,11.10
2023-04-18T00:13:49.279Z,10.62
2023-04-18T00:18:45.875Z,10.94
2023-04-18T00:23:44.448Z,10.91
2023-04-18T00:28:41.706Z,10.85
2023-04-18T00:33:40.197Z,10.72
2023-04-18T00:38:37.209Z,11.00
2023-04-18T00:43:34.524Z,10.78
2023-04-18T00:48:31.852Z,10.79
2023-04-18T00:53:29.034Z,10.40
2023-04-18T00:58:26.130Z,10.44
2023-04-18T01:03:23.646Z,10.57
2023-04-18T01:08:21.364Z,10.50
2023-04-18T01:13:18.436Z,10.59
2023-04-18T01:18:16.375Z,10.21
2023-04-18T01:23:13.230Z,10.38
2023-04-18T01:28:11.073Z,10.80
2023-04-18T01:33:07.876Z,10.52
2023-04-18T01:38:04.530Z,10.70
2023-04-18T01:43:01.175Z,10.50
2023-04-18T01:47:58.549Z,10.37
2023-04-18T01:52:55.246Z,10.24
2023-04-18T01:57:52.165Z,10.19
2023-04-18T02:02:50.302Z,10.52
2023-04-18T02:07:49.707Z,10.58
2023-04-18T02:12:46.569Z,10.35
2023-04-18T02:17:43.330Z,10.58
2023-04-18T02:22:39.847Z,10.40
2023-04-18T02:27:37.174Z,10.63
2023-04-18T02:32:33.831Z,10.05
2023-04-18T02:37:30.786Z,10.24
2023-04-18T02:42:27.737Z,10.23
2023-04-18T02:47:25.035Z,10.50
2023-04-18T02:52:22.120Z,10.56
2023-04-18T02:57:18.719Z,10.31
2023-04-18T03:02:24.306Z,10.32
2023-04-18T03:07:26.385Z,10.43
2023-04-18T03:12:23.140Z,10.57
2023-04-18T03:17:19.761Z,10.60
2023-04-18T03:22:18.630Z,10.80
2023-04-18T03:27:27.167Z,10.71
2023-04-18T03:32:24.416Z,10.82
2023-04-18T03:37:21.384Z,10.70
2023-04-18T03:42:23.183Z,10.40
2023-04-18T03:47:20.681Z,10.21
2023-04-18T03:52:23.600Z,10.51
2023-04-18T03:57:20.258Z,10.63
2023-04-18T04:02:17.062Z,10.85
2023-04-18T04:07:14.486Z,10.92
2023-04-18T04:12:11.964Z,11.00
2023-04-18T04:17:08.721Z,11.01
2023-04-18T04:22:06.575Z,10.95
2023-04-18T04:27:04.653Z,10.67
2023-04-18T04:32:05.275Z,10.49
2023-04-18T04:37:09.261Z,10.55
2023-04-18T04:42:16.044Z,10.85
2023-04-18T04:47:23.037Z,10.76
2023-04-18T04:52:19.879Z,10.77
2023-04-18T04:57:17.270Z,10.76
2023-04-18T05:02:14.529Z,10.99
2023-04-18T05:07:11.309Z,11.37
2023-04-18T05:12:08.258Z,11.27
2023-04-18T05:17:06.973Z,11.26
2023-04-18T05:22:03.599Z,11.30
2023-04-18T05:27:01.063Z,11.24
2023-04-18T05:31:57.892Z,11.61
2023-04-18T05:36:55.507Z,11.66
2023-04-18T05:41:52.182Z,11.65
2023-04-18T05:46:51.299Z,11.89
2023-04-18T05:51:49.325Z,11.48
2023-04-18T05:56:46.914Z,11.45
2023-04-18T06:01:43.717Z,11.66
2023-04-18T06:06:40.498Z,11.28
2023-04-18T06:11:37.116Z,11.42
2023-04-18T06:16:35.874Z,11.13
2023-04-18T06:21:32.740Z,11.68
2023-04-18T06:26:31.354Z,11.82
2023-04-18T06:31:51.319Z,12.07
2023-04-18T06:37:16.906Z,12.33
2023-04-18T06:42:25.249Z,12.31
2023-04-18T06:48:00.831Z,12.36
2023-04-18T06:54:01.220Z,12.43
2023-04-18T06:59:51.082Z,12.47
2023-04-18T07:05:17.268Z,12.49
2023-04-18T07:17:14.891Z,12.28
2023-04-18T07:29:30.067Z,12.20
2023-04-18T07:35:25.237Z,12.23
2023-04-18T07:46:52.824Z,12.32
2023-04-18T07:58:21.336Z,12.30
2023-04-18T08:04:07.445Z,12.11
2023-04-18T08:09:40.142Z,11.95
2023-04-18T08:15:37.134Z,12.05
2023-04-18T08:22:04.161Z,12.26
2023-04-18T08:28:06.914Z,12.31
2023-04-18T08:33:39.030Z,12.48
2023-04-18T08:39:32.235Z,12.38
2023-04-18T08:44:50.814Z,12.39
2023-04-18T08:49:47.348Z,12.33
2023-04-18T08:54:46.252Z,12.61
2023-04-18T08:59:45.937Z,12.73
2023-04-18T09:04:45.126Z,12.88
2023-04-18T09:09:46.479Z,12.84
2023-04-18T09:14:44.960Z,13.20
2023-04-18T09:19:49.588Z,13.41
2023-04-18T09:24:52.198Z,13.11
2023-04-18T09:29:51.466Z,13.43
2023-04-18T09:34:48.275Z,13.52
2023-04-18T09:40:25.245Z,13.12
2023-04-18T09:45:43.032Z,12.99
2023-04-18T09:50:43.363Z,13.39
2023-04-18T09:55:41.766Z,13.30
2023-04-18T10:00:48.461Z,13.27
2023-04-18T10:05:46.962Z,12.96
2023-04-18T10:10:43.818Z,13.05
2023-04-18T10:15:50.501Z,12.92
2023-04-18T10:21:01.420Z,12.71
2023-04-18T10:26:03.836Z,12.90
2023-04-18T10:31:11.776Z,13.05
2023-04-18T10:36:16.596Z,13.15
2023-04-18T10:41:14.322Z,13.34
2023-04-18T10:46:24.042Z,13.52
2023-04-18T10:51:25.906Z,13.86
2023-04-18T10:56:23.103Z,13.89
2023-04-18T11:01:24.783Z,13.97
2023-04-18T11:06:21.756Z,13.83
2023-04-18T11:11:19.352Z,13.96
2023-04-18T11:16:25.462Z,13.68
2023-04-18T11:21:22.156Z,13.86
2023-04-18T11:26:21.122Z,13.62
2023-04-18T11:31:17.896Z,13.87
2023-04-18T11:36:14.663Z,14.01
2023-04-18T11:41:14.881Z,14.26
2023-04-18T11:46:13.052Z,14.17
2023-04-18T11:51:29.794Z,14.29
2023-04-18T11:56:26.439Z,14.38
2023-04-18T12:01:26.555Z,14.26
2023-04-18T12:06:23.401Z,14.53
2023-04-18T12:11:20.329Z,14.52
2023-04-18T12:16:16.867Z,14.57
2023-04-18T12:21:16.576Z,14.51
2023-04-18T12:26:14.684Z,14.64
2023-04-18T12:31:11.561Z,14.68
2023-04-18T12:36:09.400Z,14.64
2023-04-18T12:41:06.744Z,14.37
2023-04-18T12:46:03.544Z,14.64
2023-04-18T12:51:00.237Z,14.71
2023-04-18T12:55:56.856Z,14.77
2023-04-18T13:00:55.509Z,14.91
2023-04-18T13:05:53.786Z,14.66
2023-04-18T13:10:51.055Z,14.24
2023-04-18T13:15:48.023Z,14.30
2023-04-18T13:20:45.398Z,14.45
2023-04-18T13:25:42.004Z,14.16
2023-04-18T13:30:38.910Z,14.26
2023-04-18T13:35:36.133Z,14.22
2023-04-18T13:40:33.515Z,14.28
2023-04-18T13:45:30.192Z,14.13
2023-04-18T13:50:26.790Z,14.18
2023-04-18T13:55:23.648Z,14.15
2023-04-18T14:00:21.387Z,14.21
2023-04-18T14:05:18.076Z,14.18
2023-04-18T14:10:14.867Z,14.66
2023-04-18T14:15:11.827Z,14.65
2023-04-18T14:20:09.533Z,14.96
2023-04-18T14:25:07.783Z,14.75
2023-04-18T14:30:06.259Z,14.66
2023-04-18T14:35:05.551Z,14.82
2023-04-18T14:40:05.008Z,15.10
2023-04-18T14:45:02.372Z,15.00
2023-04-18T14:49:59.049Z,15.00
2023-04-18T14:54:55.616Z,15.11
2023-04-18T14:59:53.826Z,14.94
2023-04-18T15:04:51.088Z,15.04
2023-04-18T15:09:49.126Z,14.98
2023-04-18T15:14:45.746Z,15.05
2023-04-18T15:19:42.975Z,15.18
2023-04-18T15:24:39.708Z,15.16
2023-04-18T15:29:36.578Z,15.17
2023-04-18T15:34:33.253Z,15.36
2023-04-18T15:39:30.438Z,15.40
2023-04-18T15:44:27.472Z,15.40
2023-04-18T15:49:24.171Z,15.14
2023-04-18T15:54:20.892Z,15.07
2023-04-18T15:59:18.198Z,15.10
2023-04-18T16:04:17.590Z,15.02
2023-04-18T16:09:15.633Z,15.10
2023-04-18T16:14:12.387Z,15.09
2023-04-18T16:19:09.927Z,15.05
2023-04-18T16:24:07.208Z,15.15
2023-04-18T16:29:04.085Z,15.24
2023-04-18T16:34:02.549Z,15.29
2023-04-18T16:38:59.778Z,15.28
2023-04-18T16:43:56.682Z,15.43
2023-04-18T16:48:54.596Z,15.44
2023-04-18T16:53:51.175Z,15.30
2023-04-18T16:58:48.558Z,15.38
2023-04-18T17:03:45.350Z,15.34
2023-04-18T17:08:41.972Z,15.37
2023-04-18T17:13:38.639Z,15.49
2023-04-18T17:18:37.907Z,15.56
2023-04-18T17:23:34.812Z,15.17
2023-04-18T17:28:33.636Z,14.98
2023-04-18T17:33:31.988Z,15.05
2023-04-18T17:38:29.584Z,14.98
2023-04-18T17:43:26.211Z,14.92
2023-04-18T17:48:22.947Z,15.13
2023-04-18T17:53:19.578Z,15.16
2023-04-18T17:58:17.375Z,15.02
2023-04-18T18:03:14.484Z,15.00
2023-04-18T18:08:11.107Z,14.62
2023-04-18T18:13:08.189Z,14.41
2023-04-18T18:18:05.972Z,14.60
2023-04-18T18:23:02.912Z,14.50
2023-04-18T18:28:01.514Z,14.45
2023-04-18T18:32:58.282Z,14.27
2023-04-18T18:37:55.630Z,14.43
2023-04-18T18:43:06.566Z,14.19
2023-04-18T18:48:07.240Z,14.23
2023-04-18T18:53:11.000Z,14.18
2023-04-18T18:58:12.055Z,14.19
2023-04-18T19:03:18.408Z,13.95
2023-04-18T19:08:18.912Z,13.91
2023-04-18T19:13:15.523Z,14.17
2023-04-18T19:18:12.100Z,13.95
2023-04-18T19:23:08.711Z,13.81
2023-04-18T19:28:06.117Z,13.80
2023-04-18T19:33:02.937Z,13.74
2023-04-18T19:38:01.780Z,13.84
2023-04-18T19:42:58.392Z,13.72
2023-04-18T19:47:58.366Z,13.63
2023-04-18T19:52:55.285Z,13.47
2023-04-18T19:57:54.356Z,13.43
2023-04-18T20:02:51.258Z,13.27
2023-04-18T20:07:48.778Z,13.25
2023-04-18T20:12:45.502Z,13.19
2023-04-18T20:17:42.123Z,13.35
2023-04-18T20:22:39.805Z,13.16
2023-04-18T20:27:37.072Z,13.11
2023-04-18T20:32:34.044Z,12.96
2023-04-18T20:37:35.876Z,12.94
2023-04-18T20:42:32.497Z,12.85
2023-04-18T20:47:30.185Z,13.02
2023-04-18T20:52:26.832Z,12.84
2023-04-18T20:57:23.310Z,12.88
2023-04-18T21:02:20.007Z,12.81
2023-04-18T21:07:17.392Z,12.91
2023-04-18T21:12:14.059Z,13.01
2023-04-18T21:17:16.461Z,13.12
2023-04-18T21:22:13.429Z,12.75
2023-04-18T21:27:10.706Z,12.77
2023-04-18T21:32:07.361Z,12.74
2023-04-18T21:37:03.938Z,12.61
2023-04-18T21:42:01.188Z,12.69
2023-04-18T21:46:58.434Z,12.62
2023-04-18T21:51:55.054Z,12.43
2023-04-18T21:56:51.737Z,12.34
2023-04-18T22:01:48.276Z,12.75
2023-04-18T22:06:45.429Z,12.65
2023-04-18T22:11:42.300Z,12.52
2023-04-18T22:16:39.372Z,12.43
2023-04-18T22:21:36.177Z,12.44
2023-04-18T22:26:33.590Z,12.54
2023-04-18T22:31:30.401Z,12.19
2023-04-18T22:36:30.654Z,12.04
2023-04-18T22:41:30.715Z,12.08
2023-04-18T22:46:28.168Z,11.71
2023-04-18T22:51:24.782Z,11.78
2023-04-18T22:56:21.439Z,11.70
2023-04-18T23:01:18.124Z,11.53
2023-04-18T23:06:15.918Z,11.26
2023-04-18T23:11:12.966Z,11.18
2023-04-18T23:16:12.404Z,11.21
2023-04-18T23:21:09.082Z,11.11
2023-04-18T23:26:12.274Z,11.50
2023-04-18T23:31:09.103Z,11.41
2023-04-18T23:36:06.332Z,11.18
2023-04-18T23:41:03.076Z,11.14
2023-04-18T23:46:00.344Z,11.31
2023-04-18T23:50:58.812Z,11.60
2023-04-18T23:55:55.291Z,11.50
